Alire, New Mexico
Current Conditions -  °F | °C
As of 9:15 PM on Monday 22 Dec 2014 (Local Time) from KLAM Reporting Station
Moderate Snow Moderate Snow  
Wind Chill: 23°   Ceiling: 300
Heat Index: 29°   Visibility: 0.75mi
Dew Point: 29°   Wind: 6mph
Humidity: 100%   Direction: 60°ENE
Pressure: 29.79"   Gusts: NA
Location:  36.4765°N, 106.58°W
Report Text: KLAM 230415Z AUTO 06005KT 3/4SM SN OVC003 M02/M02 A2979 RMK AO2 P0002 T10181018
Loading
Personal Weather Stations






























Interactive Weather Map New forecast layout! Learn more

10-Day Weather Forecast

Advertisements
Track Severe Weather on mobile